Startpagina
METAR-TAF:

METAR-TAF

Vliegvelden :

Luchthaven Ouagadougou Internationaal

Ouagadougou, Burkina Faso

breedte: 12-21N, lengte: 001-31W, hoogte: 316 m

Actueel weer

Dit bericht is 1 uur en het 14 minuten geleden gemaakt, om 07:00 UTC
Wind 2 kt uit het noordoosten
Temperatuur 17°C
Vochtigheid 25%
Druk 1015 hPa
Zicht: 4000 m
Heiigheid

METAR: DFFD 290700Z 04002KT 4000 HZ NSC 17/M03 Q1015 NOSIG

Tijdstip: 08:14 (08:14 UTC)

Verwachting

Dit bericht is 3 uur en het 14 minuten geleden gemaakt, om 05:00 UTC
Verwachting geldig van 29 om 06 UTC tot 30 om 12 UTC
Wind 10 kt uit het noordoosten
Zicht: 4000 m
verspreid stof
Tijdelijke
van 29 om 06 UTC tot 29 om 10 UTC
Zicht: 2500 m
verspreid stof
Wijzigt naar
van 29 om 20 UTC tot 29 om 22 UTC
Zicht: 6000 m

TAF: DFFD 290500Z 2906/3012 04010KT 4000 DU NSC TEMPO 2906/2910 2500 DU BECMG 2920/2922 6000 NSW

Waarnemingen en weersverwachtingen van meer dan 4000 vliegvelden (METAR en TAF).

De beschikbare stations zijn de gele en rode punten op de kaart.

Ga met uw muis naar het station om de naam te zien.

Klik dan om waarnemingen en weersverwachtingen te zien.

kaart wijzigen: klik op de groene knoppen met een zwart kruis om in te zoomen, op de groene knop met een streepje om uit te zoomen of op de groene pijlen voor aangrenzende kaarten.


METAR-TAF: